MUC | München Airways

 METAR UND TAF INFORMATION

METAR FOR LGSK
ADDS - METARS form results

(1358 UTC 24 January 2019)
Data provider http://aviationweather.gov/metar/data/
 
Forecast for: LGSK (SKIATHOS ISLAND , GR)
Text: TAF LGSK 241100Z 2412/2421 23013KT 9999 FEW018
Forecast period: 1200 to 2100 UTC 24 January 2019
Forecast type: FROM: standard forecast or significant change
Winds: from the SW (230 degrees) at 15 MPH (13 knots; 6.7 m/s)
Visibility: 6 or more miles 10+ km)
Ceiling: at least 12,000 feet AGL
Clouds: few clouds at 1800 feet AGL
Weather: no significant weather forecast for this period

 FLUGHAFENKARTE

 RUNWAY INFORMATION
Runway 02 Runway length 5341 ft Runway width 98 ft
Runway elevation 9 ft Runway displaced threshold 190 ft Runway heading 19
Runway 20 Runway length 5341 ft Runway width 98 ft
Runway elevation 54 ft Runway displaced threshold 0 ft Runway heading 199

 AIRPORT FREQUENCIES
Type A/G Name SKIATHOS R Frequency 563.7 MHZ
Type APP Name SKIATHOS A Frequency 126.05 MHZ
Type TWR Name SKIATHOS T Frequency 126.05 MHZ

 AIRPORT NEAR NAVIGATION AIDS
Type NDB Name Skiathos Frequency 326 KHZ